sensor_id;sensor_type;location;lat;lon;timestamp;temperature;humidity
43647;DHT22;56152;49.996;18.980;2022-08-18T00:00:37;20.50;90.00
43647;DHT22;56152;49.996;18.980;2022-08-18T00:05:40;20.40;90.20
43647;DHT22;56152;49.996;18.980;2022-08-18T00:10:43;20.30;90.50
43647;DHT22;56152;49.996;18.980;2022-08-18T00:15:49;20.30;90.40
43647;DHT22;56152;49.996;18.980;2022-08-18T00:20:52;20.10;90.50
43647;DHT22;56152;49.996;18.980;2022-08-18T00:25:57;19.90;90.70
43647;DHT22;56152;49.996;18.980;2022-08-18T00:31:01;19.80;90.80
43647;DHT22;56152;49.996;18.980;2022-08-18T00:36:03;19.90;91.00
43647;DHT22;56152;49.996;18.980;2022-08-18T00:41:08;19.80;91.00
43647;DHT22;56152;49.996;18.980;2022-08-18T00:46:15;19.90;91.00
43647;DHT22;56152;49.996;18.980;2022-08-18T00:51:23;19.90;91.00
43647;DHT22;56152;49.996;18.980;2022-08-18T00:56:29;19.80;91.00
43647;DHT22;56152;49.996;18.980;2022-08-18T01:01:39;19.80;91.00
43647;DHT22;56152;49.996;18.980;2022-08-18T01:06:44;19.80;91.10
43647;DHT22;56152;49.996;18.980;2022-08-18T01:11:50;19.70;91.10
43647;DHT22;56152;49.996;18.980;2022-08-18T01:16:58;19.70;91.10
43647;DHT22;56152;49.996;18.980;2022-08-18T01:22:22;19.60;91.20
43647;DHT22;56152;49.996;18.980;2022-08-18T01:27:27;19.60;91.20
43647;DHT22;56152;49.996;18.980;2022-08-18T01:32:32;19.50;91.20
43647;DHT22;56152;49.996;18.980;2022-08-18T01:37:35;19.50;91.40
43647;DHT22;56152;49.996;18.980;2022-08-18T01:42:39;19.40;91.80
43647;DHT22;56152;49.996;18.980;2022-08-18T01:47:44;19.30;91.90
43647;DHT22;56152;49.996;18.980;2022-08-18T01:52:47;19.20;91.90
43647;DHT22;56152;49.996;18.980;2022-08-18T01:57:52;19.10;92.00
43647;DHT22;56152;49.996;18.980;2022-08-18T02:02:58;19.10;92.00
43647;DHT22;56152;49.996;18.980;2022-08-18T02:08:00;19.00;91.90
43647;DHT22;56152;49.996;18.980;2022-08-18T02:13:11;18.90;91.80
43647;DHT22;56152;49.996;18.980;2022-08-18T02:18:23;18.80;91.80
43647;DHT22;56152;49.996;18.980;2022-08-18T02:23:27;18.70;91.80
43647;DHT22;56152;49.996;18.980;2022-08-18T02:28:31;18.60;91.90
43647;DHT22;56152;49.996;18.980;2022-08-18T02:33:33;18.60;91.90
43647;DHT22;56152;49.996;18.980;2022-08-18T02:38:41;18.60;91.90
43647;DHT22;56152;49.996;18.980;2022-08-18T02:43:45;18.60;91.90
43647;DHT22;56152;49.996;18.980;2022-08-18T02:48:51;18.50;92.00
43647;DHT22;56152;49.996;18.980;2022-08-18T02:53:54;18.50;92.30
43647;DHT22;56152;49.996;18.980;2022-08-18T02:59:03;18.50;92.10
43647;DHT22;56152;49.996;18.980;2022-08-18T03:04:06;18.40;92.40
43647;DHT22;56152;49.996;18.980;2022-08-18T03:09:11;18.40;92.10
43647;DHT22;56152;49.996;18.980;2022-08-18T03:14:15;18.40;92.10
43647;DHT22;56152;49.996;18.980;2022-08-18T03:19:19;18.30;92.20
43647;DHT22;56152;49.996;18.980;2022-08-18T03:24:24;18.30;92.20
43647;DHT22;56152;49.996;18.980;2022-08-18T03:29:31;18.30;92.30
43647;DHT22;56152;49.996;18.980;2022-08-18T03:34:35;18.30;92.40
43647;DHT22;56152;49.996;18.980;2022-08-18T03:39:36;18.30;92.40
43647;DHT22;56152;49.996;18.980;2022-08-18T03:44:55;18.20;92.50
43647;DHT22;56152;49.996;18.980;2022-08-18T03:49:59;18.20;92.60
43647;DHT22;56152;49.996;18.980;2022-08-18T03:55:02;18.20;92.60
43647;DHT22;56152;49.996;18.980;2022-08-18T04:00:09;18.20;92.60
43647;DHT22;56152;49.996;18.980;2022-08-18T04:05:12;18.20;92.60
43647;DHT22;56152;49.996;18.980;2022-08-18T04:10:17;18.20;92.60
43647;DHT22;56152;49.996;18.980;2022-08-18T04:15:23;18.30;92.70
43647;DHT22;56152;49.996;18.980;2022-08-18T04:20:25;18.30;92.80
43647;DHT22;56152;49.996;18.980;2022-08-18T04:25:29;18.40;93.00
43647;DHT22;56152;49.996;18.980;2022-08-18T04:30:35;18.60;92.90
43647;DHT22;56152;49.996;18.980;2022-08-18T04:35:37;18.80;92.80
43647;DHT22;56152;49.996;18.980;2022-08-18T04:40:40;18.90;92.70
43647;DHT22;56152;49.996;18.980;2022-08-18T04:45:44;19.20;92.50
43647;DHT22;56152;49.996;18.980;2022-08-18T04:50:46;19.40;92.50
43647;DHT22;56152;49.996;18.980;2022-08-18T04:55:50;19.50;92.40
43647;DHT22;56152;49.996;18.980;2022-08-18T05:01:00;19.70;92.40
43647;DHT22;56152;49.996;18.980;2022-08-18T05:06:04;19.80;92.40
43647;DHT22;56152;49.996;18.980;2022-08-18T05:11:08;19.90;92.30
43647;DHT22;56152;49.996;18.980;2022-08-18T05:16:12;20.10;92.10
43647;DHT22;56152;49.996;18.980;2022-08-18T05:21:18;20.40;92.00
43647;DHT22;56152;49.996;18.980;2022-08-18T05:26:21;20.80;91.90
43647;DHT22;56152;49.996;18.980;2022-08-18T05:31:27;21.40;91.30
43647;DHT22;56152;49.996;18.980;2022-08-18T05:36:49;21.70;90.60
43647;DHT22;56152;49.996;18.980;2022-08-18T05:42:03;22.00;90.70
43647;DHT22;56152;49.996;18.980;2022-08-18T05:47:12;22.50;90.10
43647;DHT22;56152;49.996;18.980;2022-08-18T05:52:19;23.00;89.30
43647;DHT22;56152;49.996;18.980;2022-08-18T05:57:27;23.40;87.90
43647;DHT22;56152;49.996;18.980;2022-08-18T06:02:36;23.50;86.90
43647;DHT22;56152;49.996;18.980;2022-08-18T06:07:42;23.60;86.60
43647;DHT22;56152;49.996;18.980;2022-08-18T06:12:48;23.70;86.20
43647;DHT22;56152;49.996;18.980;2022-08-18T06:18:20;23.90;85.60
43647;DHT22;56152;49.996;18.980;2022-08-18T06:23:30;24.00;85.30
43647;DHT22;56152;49.996;18.980;2022-08-18T06:28:46;24.10;85.00
43647;DHT22;56152;49.996;18.980;2022-08-18T06:33:55;24.30;84.30
43647;DHT22;56152;49.996;18.980;2022-08-18T06:39:06;24.60;82.90
43647;DHT22;56152;49.996;18.980;2022-08-18T06:44:18;24.90;82.60
43647;DHT22;56152;49.996;18.980;2022-08-18T06:49:34;25.30;81.30
43647;DHT22;56152;49.996;18.980;2022-08-18T06:54:44;25.70;80.40
43647;DHT22;56152;49.996;18.980;2022-08-18T06:59:55;26.00;79.50
43647;DHT22;56152;49.996;18.980;2022-08-18T07:05:04;26.40;77.80
43647;DHT22;56152;49.996;18.980;2022-08-18T07:10:30;26.70;77.50
43647;DHT22;56152;49.996;18.980;2022-08-18T07:15:33;26.70;76.70
43647;DHT22;56152;49.996;18.980;2022-08-18T07:20:43;26.90;76.40
43647;DHT22;56152;49.996;18.980;2022-08-18T07:26:00;27.10;75.80
43647;DHT22;56152;49.996;18.980;2022-08-18T07:31:23;27.10;75.40
43647;DHT22;56152;49.996;18.980;2022-08-18T07:36:37;27.20;74.30
43647;DHT22;56152;49.996;18.980;2022-08-18T07:41:48;27.40;73.30
43647;DHT22;56152;49.996;18.980;2022-08-18T07:46:56;27.40;73.70
43647;DHT22;56152;49.996;18.980;2022-08-18T07:52:05;27.60;72.60
43647;DHT22;56152;49.996;18.980;2022-08-18T07:57:13;27.60;72.20
43647;DHT22;56152;49.996;18.980;2022-08-18T08:02:30;27.70;72.70
43647;DHT22;56152;49.996;18.980;2022-08-18T08:07:44;28.00;71.60
43647;DHT22;56152;49.996;18.980;2022-08-18T08:12:54;28.20;71.20
43647;DHT22;56152;49.996;18.980;2022-08-18T08:18:10;28.30;70.30
43647;DHT22;56152;49.996;18.980;2022-08-18T08:23:21;28.60;69.60
43647;DHT22;56152;49.996;18.980;2022-08-18T08:28:37;28.60;69.40
43647;DHT22;56152;49.996;18.980;2022-08-18T08:33:46;28.90;68.60
43647;DHT22;56152;49.996;18.980;2022-08-18T08:38:56;28.90;68.60
43647;DHT22;56152;49.996;18.980;2022-08-18T08:44:05;28.90;67.70
43647;DHT22;56152;49.996;18.980;2022-08-18T08:49:18;28.90;68.00
43647;DHT22;56152;49.996;18.980;2022-08-18T08:54:37;28.90;67.40
43647;DHT22;56152;49.996;18.980;2022-08-18T08:59:42;28.70;67.50
43647;DHT22;56152;49.996;18.980;2022-08-18T09:04:50;28.70;67.80
43647;DHT22;56152;49.996;18.980;2022-08-18T09:15:38;29.20;66.50
43647;DHT22;56152;49.996;18.980;2022-08-18T09:20:55;29.50;65.80
43647;DHT22;56152;49.996;18.980;2022-08-18T09:26:25;29.60;64.50
43647;DHT22;56152;49.996;18.980;2022-08-18T09:31:30;29.80;64.60
43647;DHT22;56152;49.996;18.980;2022-08-18T09:36:40;30.00;64.00
43647;DHT22;56152;49.996;18.980;2022-08-18T09:41:51;30.20;63.20
43647;DHT22;56152;49.996;18.980;2022-08-18T09:46:58;30.20;62.30
43647;DHT22;56152;49.996;18.980;2022-08-18T09:52:45;30.40;61.70
43647;DHT22;56152;49.996;18.980;2022-08-18T09:57:25;30.50;61.50
43647;DHT22;56152;49.996;18.980;2022-08-18T10:08:35;30.90;60.10
43647;DHT22;56152;49.996;18.980;2022-08-18T10:13:45;31.10;59.60
43647;DHT22;56152;49.996;18.980;2022-08-18T10:19:04;31.20;60.00
43647;DHT22;56152;49.996;18.980;2022-08-18T10:24:16;31.30;59.30
43647;DHT22;56152;49.996;18.980;2022-08-18T10:29:54;31.40;59.20
43647;DHT22;56152;49.996;18.980;2022-08-18T10:34:56;31.50;59.20
43647;DHT22;56152;49.996;18.980;2022-08-18T10:40:00;31.60;58.40
43647;DHT22;56152;49.996;18.980;2022-08-18T10:45:11;31.50;58.00
43647;DHT22;56152;49.996;18.980;2022-08-18T10:50:21;31.20;57.90
43647;DHT22;56152;49.996;18.980;2022-08-18T10:55:43;31.10;58.00
43647;DHT22;56152;49.996;18.980;2022-08-18T11:01:01;31.00;57.60
43647;DHT22;56152;49.996;18.980;2022-08-18T11:06:06;31.10;57.00
43647;DHT22;56152;49.996;18.980;2022-08-18T11:11:10;31.00;57.20
43647;DHT22;56152;49.996;18.980;2022-08-18T11:16:24;31.10;57.20
43647;DHT22;56152;49.996;18.980;2022-08-18T11:21:32;31.30;56.90
43647;DHT22;56152;49.996;18.980;2022-08-18T11:26:37;31.30;56.30
43647;DHT22;56152;49.996;18.980;2022-08-18T11:31:42;31.30;56.20
43647;DHT22;56152;49.996;18.980;2022-08-18T11:36:55;31.20;55.70
43647;DHT22;56152;49.996;18.980;2022-08-18T11:41:57;31.30;56.10
43647;DHT22;56152;49.996;18.980;2022-08-18T11:47:15;31.20;56.50
43647;DHT22;56152;49.996;18.980;2022-08-18T11:52:22;31.30;56.50
43647;DHT22;56152;49.996;18.980;2022-08-18T11:57:36;31.20;56.20
43647;DHT22;56152;49.996;18.980;2022-08-18T12:02:43;31.20;55.90
43647;DHT22;56152;49.996;18.980;2022-08-18T12:07:45;31.30;55.90
43647;DHT22;56152;49.996;18.980;2022-08-18T12:12:51;31.20;56.50
43647;DHT22;56152;49.996;18.980;2022-08-18T12:17:55;31.30;56.30
43647;DHT22;56152;49.996;18.980;2022-08-18T12:22:57;31.30;56.10
43647;DHT22;56152;49.996;18.980;2022-08-18T12:27:59;31.20;55.70
43647;DHT22;56152;49.996;18.980;2022-08-18T12:33:03;31.30;55.60
43647;DHT22;56152;49.996;18.980;2022-08-18T12:38:05;31.30;55.50
43647;DHT22;56152;49.996;18.980;2022-08-18T12:43:09;31.40;55.60
43647;DHT22;56152;49.996;18.980;2022-08-18T12:48:14;31.30;55.40
43647;DHT22;56152;49.996;18.980;2022-08-18T12:53:17;31.10;55.60
43647;DHT22;56152;49.996;18.980;2022-08-18T12:58:21;31.10;56.10
43647;DHT22;56152;49.996;18.980;2022-08-18T13:03:26;31.10;56.00
43647;DHT22;56152;49.996;18.980;2022-08-18T13:08:29;31.00;55.70
43647;DHT22;56152;49.996;18.980;2022-08-18T13:13:34;30.90;55.50
43647;DHT22;56152;49.996;18.980;2022-08-18T13:18:45;30.80;55.50
43647;DHT22;56152;49.996;18.980;2022-08-18T13:23:47;30.90;55.60
43647;DHT22;56152;49.996;18.980;2022-08-18T13:28:50;31.10;55.40
43647;DHT22;56152;49.996;18.980;2022-08-18T13:33:57;31.10;55.60
43647;DHT22;56152;49.996;18.980;2022-08-18T13:38:59;31.00;55.90
43647;DHT22;56152;49.996;18.980;2022-08-18T13:44:01;31.00;55.90
43647;DHT22;56152;49.996;18.980;2022-08-18T13:49:07;30.90;56.00
43647;DHT22;56152;49.996;18.980;2022-08-18T13:54:26;30.80;55.70
43647;DHT22;56152;49.996;18.980;2022-08-18T13:59:28;30.80;55.30
43647;DHT22;56152;49.996;18.980;2022-08-18T14:04:35;30.60;55.40
43647;DHT22;56152;49.996;18.980;2022-08-18T14:09:38;30.60;54.90
43647;DHT22;56152;49.996;18.980;2022-08-18T14:14:40;30.50;54.40
43647;DHT22;56152;49.996;18.980;2022-08-18T14:19:47;30.50;54.80
43647;DHT22;56152;49.996;18.980;2022-08-18T14:25:07;30.40;54.60
43647;DHT22;56152;49.996;18.980;2022-08-18T14:30:27;30.30;53.90
43647;DHT22;56152;49.996;18.980;2022-08-18T14:35:32;30.30;53.90
43647;DHT22;56152;49.996;18.980;2022-08-18T14:40:36;30.20;53.60
43647;DHT22;56152;49.996;18.980;2022-08-18T14:45:38;30.10;53.60
43647;DHT22;56152;49.996;18.980;2022-08-18T14:50:51;30.00;54.40
43647;DHT22;56152;49.996;18.980;2022-08-18T14:55:55;30.00;54.20
43647;DHT22;56152;49.996;18.980;2022-08-18T15:00:59;29.90;54.20
43647;DHT22;56152;49.996;18.980;2022-08-18T15:06:05;29.90;54.60
43647;DHT22;56152;49.996;18.980;2022-08-18T15:11:08;29.90;54.60
43647;DHT22;56152;49.996;18.980;2022-08-18T15:16:11;29.80;54.60
43647;DHT22;56152;49.996;18.980;2022-08-18T15:21:15;29.80;54.40
43647;DHT22;56152;49.996;18.980;2022-08-18T15:26:38;29.70;54.50
43647;DHT22;56152;49.996;18.980;2022-08-18T15:31:44;29.70;54.70
43647;DHT22;56152;49.996;18.980;2022-08-18T15:36:49;29.60;54.90
43647;DHT22;56152;49.996;18.980;2022-08-18T15:41:52;29.60;55.00
43647;DHT22;56152;49.996;18.980;2022-08-18T15:46:55;29.50;55.30
43647;DHT22;56152;49.996;18.980;2022-08-18T15:52:03;29.50;55.40
43647;DHT22;56152;49.996;18.980;2022-08-18T15:57:06;29.40;55.40
43647;DHT22;56152;49.996;18.980;2022-08-18T16:02:12;29.40;55.50
43647;DHT22;56152;49.996;18.980;2022-08-18T16:07:18;29.30;55.90
43647;DHT22;56152;49.996;18.980;2022-08-18T16:12:20;29.20;56.10
43647;DHT22;56152;49.996;18.980;2022-08-18T16:17:22;29.10;56.40
43647;DHT22;56152;49.996;18.980;2022-08-18T16:22:28;29.00;56.60
43647;DHT22;56152;49.996;18.980;2022-08-18T16:27:32;28.90;56.70
43647;DHT22;56152;49.996;18.980;2022-08-18T16:32:35;28.80;57.00
43647;DHT22;56152;49.996;18.980;2022-08-18T16:37:40;28.70;57.20
43647;DHT22;56152;49.996;18.980;2022-08-18T16:42:42;28.70;57.50
43647;DHT22;56152;49.996;18.980;2022-08-18T16:47:45;28.50;57.80
43647;DHT22;56152;49.996;18.980;2022-08-18T16:52:49;28.50;58.10
43647;DHT22;56152;49.996;18.980;2022-08-18T16:57:53;28.30;58.60
43647;DHT22;56152;49.996;18.980;2022-08-18T17:03:13;28.20;59.00
43647;DHT22;56152;49.996;18.980;2022-08-18T17:08:38;28.00;59.40
43647;DHT22;56152;49.996;18.980;2022-08-18T17:13:41;27.90;59.90
43647;DHT22;56152;49.996;18.980;2022-08-18T17:18:47;27.70;60.40
43647;DHT22;56152;49.996;18.980;2022-08-18T17:23:54;27.50;60.80
43647;DHT22;56152;49.996;18.980;2022-08-18T17:29:02;27.30;61.30
43647;DHT22;56152;49.996;18.980;2022-08-18T17:34:07;27.20;61.70
43647;DHT22;56152;49.996;18.980;2022-08-18T17:39:11;27.00;62.00
43647;DHT22;56152;49.996;18.980;2022-08-18T17:44:15;26.90;62.40
43647;DHT22;56152;49.996;18.980;2022-08-18T17:49:20;26.90;62.50
43647;DHT22;56152;49.996;18.980;2022-08-18T17:54:30;27.10;62.40
43647;DHT22;56152;49.996;18.980;2022-08-18T17:59:40;27.20;62.10
43647;DHT22;56152;49.996;18.980;2022-08-18T18:04:44;27.10;62.30
43647;DHT22;56152;49.996;18.980;2022-08-18T18:09:59;27.10;63.40
43647;DHT22;56152;49.996;18.980;2022-08-18T18:15:06;26.80;62.80
43647;DHT22;56152;49.996;18.980;2022-08-18T18:20:26;26.80;63.40
43647;DHT22;56152;49.996;18.980;2022-08-18T18:25:34;26.60;63.80
43647;DHT22;56152;49.996;18.980;2022-08-18T18:30:36;26.60;64.30
43647;DHT22;56152;49.996;18.980;2022-08-18T18:35:48;26.40;64.60
43647;DHT22;56152;49.996;18.980;2022-08-18T18:40:58;26.30;65.20
43647;DHT22;56152;49.996;18.980;2022-08-18T18:46:26;26.20;65.70
43647;DHT22;56152;49.996;18.980;2022-08-18T18:51:42;26.00;66.10
43647;DHT22;56152;49.996;18.980;2022-08-18T18:56:55;25.80;66.70
43647;DHT22;56152;49.996;18.980;2022-08-18T19:02:17;25.60;66.90
43647;DHT22;56152;49.996;18.980;2022-08-18T19:07:24;25.50;67.40
43647;DHT22;56152;49.996;18.980;2022-08-18T19:12:33;25.30;67.60
43647;DHT22;56152;49.996;18.980;2022-08-18T19:17:45;25.30;68.10
43647;DHT22;56152;49.996;18.980;2022-08-18T19:22:54;25.20;68.40
43647;DHT22;56152;49.996;18.980;2022-08-18T19:28:01;25.10;68.60
43647;DHT22;56152;49.996;18.980;2022-08-18T19:33:05;25.00;70.00
43647;DHT22;56152;49.996;18.980;2022-08-18T19:38:17;24.90;68.70
43647;DHT22;56152;49.996;18.980;2022-08-18T19:43:34;24.90;69.20
43647;DHT22;56152;49.996;18.980;2022-08-18T19:48:42;24.80;69.40
43647;DHT22;56152;49.996;18.980;2022-08-18T19:54:07;24.70;69.50
43647;DHT22;56152;49.996;18.980;2022-08-18T19:59:29;24.60;69.70
43647;DHT22;56152;49.996;18.980;2022-08-18T20:04:46;24.60;70.10
43647;DHT22;56152;49.996;18.980;2022-08-18T20:15:28;24.40;70.60
43647;DHT22;56152;49.996;18.980;2022-08-18T20:20:34;24.30;70.90
43647;DHT22;56152;49.996;18.980;2022-08-18T20:25:43;24.20;71.00
43647;DHT22;56152;49.996;18.980;2022-08-18T20:31:03;24.10;71.20
43647;DHT22;56152;49.996;18.980;2022-08-18T20:36:19;24.10;71.40
43647;DHT22;56152;49.996;18.980;2022-08-18T20:41:49;24.00;71.60
43647;DHT22;56152;49.996;18.980;2022-08-18T20:47:04;24.00;72.40
43647;DHT22;56152;49.996;18.980;2022-08-18T20:52:21;23.90;72.20
43647;DHT22;56152;49.996;18.980;2022-08-18T20:57:26;23.80;72.30
43647;DHT22;56152;49.996;18.980;2022-08-18T21:02:51;23.80;72.70
43647;DHT22;56152;49.996;18.980;2022-08-18T21:08:00;23.70;72.90
43647;DHT22;56152;49.996;18.980;2022-08-18T21:13:06;23.70;73.30
43647;DHT22;56152;49.996;18.980;2022-08-18T21:18:29;23.60;73.50
43647;DHT22;56152;49.996;18.980;2022-08-18T21:23:35;23.50;73.60
43647;DHT22;56152;49.996;18.980;2022-08-18T21:28:40;23.50;73.70
43647;DHT22;56152;49.996;18.980;2022-08-18T21:33:50;23.40;73.90
43647;DHT22;56152;49.996;18.980;2022-08-18T21:38:55;23.30;74.10
43647;DHT22;56152;49.996;18.980;2022-08-18T21:44:18;23.30;74.40
43647;DHT22;56152;49.996;18.980;2022-08-18T21:49:27;23.20;74.60
43647;DHT22;56152;49.996;18.980;2022-08-18T21:54:32;23.20;75.00
43647;DHT22;56152;49.996;18.980;2022-08-18T22:05:32;23.10;75.40
43647;DHT22;56152;49.996;18.980;2022-08-18T22:10:34;23.00;75.60
43647;DHT22;56152;49.996;18.980;2022-08-18T22:15:52;23.00;75.80
43647;DHT22;56152;49.996;18.980;2022-08-18T22:20:59;22.90;77.00
43647;DHT22;56152;49.996;18.980;2022-08-18T22:26:05;22.80;75.90
43647;DHT22;56152;49.996;18.980;2022-08-18T22:31:09;22.80;76.20
43647;DHT22;56152;49.996;18.980;2022-08-18T22:36:26;22.70;76.50
43647;DHT22;56152;49.996;18.980;2022-08-18T22:41:29;22.70;77.00
43647;DHT22;56152;49.996;18.980;2022-08-18T22:46:32;22.60;77.10
43647;DHT22;56152;49.996;18.980;2022-08-18T22:51:37;22.50;77.30
43647;DHT22;56152;49.996;18.980;2022-08-18T22:56:41;22.50;77.60
43647;DHT22;56152;49.996;18.980;2022-08-18T23:01:45;22.50;77.80
43647;DHT22;56152;49.996;18.980;2022-08-18T23:06:51;22.50;77.90
43647;DHT22;56152;49.996;18.980;2022-08-18T23:11:55;22.40;78.00
43647;DHT22;56152;49.996;18.980;2022-08-18T23:17:01;22.40;78.20
43647;DHT22;56152;49.996;18.980;2022-08-18T23:22:06;22.30;78.50
43647;DHT22;56152;49.996;18.980;2022-08-18T23:27:11;22.20;78.90
43647;DHT22;56152;49.996;18.980;2022-08-18T23:32:14;22.10;79.60
43647;DHT22;56152;49.996;18.980;2022-08-18T23:37:19;22.00;80.10
43647;DHT22;56152;49.996;18.980;2022-08-18T23:42:21;21.90;80.20
43647;DHT22;56152;49.996;18.980;2022-08-18T23:47:24;21.80;80.40
43647;DHT22;56152;49.996;18.980;2022-08-18T23:52:29;21.80;80.90
43647;DHT22;56152;49.996;18.980;2022-08-18T23:57:31;21.70;81.30
